createdAt,value
2019-02-08T00:01:26.689Z,100063.58
2019-02-08T00:03:56.095Z,100062.09
2019-02-08T00:06:25.538Z,100067.98
2019-02-08T00:08:55.005Z,100061.06
2019-02-08T00:11:24.494Z,100062.15
2019-02-08T00:13:53.900Z,100063.40
2019-02-08T00:16:23.886Z,100055.62
2019-02-08T00:18:53.341Z,100059.48
2019-02-08T00:21:23.057Z,100056.04
2019-02-08T00:23:52.452Z,100053.87
2019-02-08T00:26:21.843Z,100055.66
2019-02-08T00:28:51.437Z,100048.27
2019-02-08T00:31:20.902Z,100052.92
2019-02-08T00:33:50.301Z,100046.10
2019-02-08T00:36:19.747Z,100049.57
2019-02-08T00:38:49.219Z,100049.70
2019-02-08T00:41:18.706Z,100057.37
2019-02-08T00:43:48.169Z,100052.68
2019-02-08T00:46:17.645Z,100055.80
2019-02-08T00:48:47.885Z,100048.27
2019-02-08T00:51:17.316Z,100050.06
2019-02-08T00:53:46.804Z,100050.23
2019-02-08T00:56:16.350Z,100050.09
2019-02-08T00:58:45.863Z,100041.91
2019-02-08T01:01:15.258Z,100039.12
2019-02-08T01:03:45.038Z,100037.13
2019-02-08T01:06:15.127Z,100038.13
2019-02-08T01:08:44.516Z,100032.38
2019-02-08T01:11:13.887Z,100028.68
2019-02-08T01:13:43.420Z,100018.91
2019-02-08T01:16:12.891Z,100019.94
2019-02-08T01:18:42.277Z,100022.19
2019-02-08T01:21:11.678Z,100019.97
2019-02-08T01:23:41.561Z,100015.13
2019-02-08T01:26:11.097Z,100017.36
2019-02-08T01:28:40.877Z,100015.74
2019-02-08T01:31:10.446Z,100009.95
2019-02-08T01:33:39.824Z,100005.00
2019-02-08T01:36:09.234Z,100005.98
2019-02-08T01:38:38.699Z,100005.09
2019-02-08T01:41:08.284Z,100001.86
2019-02-08T01:43:37.709Z,100006.30
2019-02-08T01:46:07.093Z,100007.38
2019-02-08T01:48:36.555Z,100009.55
2019-02-08T01:51:06.286Z,100011.80
2019-02-08T01:53:35.680Z,100002.33
2019-02-08T01:56:05.073Z,100009.07
2019-02-08T01:58:34.845Z,100001.00
2019-02-08T02:01:05.016Z,100005.14
2019-02-08T02:03:34.402Z,99997.02
2019-02-08T02:06:04.011Z,100000.31
2019-02-08T02:08:33.504Z,100001.14
2019-02-08T02:11:02.875Z,100000.73
2019-02-08T02:13:32.409Z,100000.01
2019-02-08T02:16:01.997Z,100000.78
2019-02-08T02:18:31.367Z,99995.95
2019-02-08T02:21:00.924Z,100002.28
2019-02-08T02:23:30.397Z,99997.78
2019-02-08T02:25:59.910Z,99999.64
2019-02-08T02:28:29.308Z,99998.81
2019-02-08T02:30:58.683Z,99994.34
2019-02-08T02:33:28.131Z,99995.39
2019-02-08T02:35:57.651Z,99998.17
2019-02-08T02:38:27.018Z,100004.44
2019-02-08T02:40:56.404Z,100000.30
2019-02-08T02:43:26.149Z,100003.72
2019-02-08T02:45:55.629Z,100007.16
2019-02-08T02:48:25.105Z,100006.72
2019-02-08T02:50:54.726Z,100003.53
2019-02-08T02:53:24.892Z,100010.61
2019-02-08T02:55:54.276Z,100010.69
2019-02-08T02:58:23.786Z,100012.98
2019-02-08T03:00:53.399Z,100013.40
2019-02-08T03:03:22.756Z,100010.98
2019-02-08T03:05:52.168Z,100011.67
2019-02-08T03:08:21.657Z,100011.28
2019-02-08T03:10:52.373Z,100010.42
2019-02-08T03:13:21.804Z,100012.11
2019-02-08T03:15:51.155Z,100003.08
2019-02-08T03:18:20.628Z,100007.20
2019-02-08T03:20:50.155Z,100006.94
2019-02-08T03:23:19.525Z,100007.70
2019-02-08T03:25:48.989Z,100012.48
2019-02-08T03:28:18.404Z,100013.91
2019-02-08T03:30:58.577Z,100008.71
2019-02-08T03:33:28.312Z,100006.05
2019-02-08T03:35:57.807Z,100002.01
2019-02-08T03:38:27.153Z,100004.14
2019-02-08T03:40:56.579Z,100012.57
2019-02-08T03:43:26.053Z,100011.33
2019-02-08T03:45:55.533Z,100016.13
2019-02-08T03:48:24.977Z,100013.87
2019-02-08T03:50:54.355Z,100015.89
2019-02-08T03:53:23.933Z,100011.00
2019-02-08T03:55:58.278Z,100016.25
2019-02-08T03:58:24.549Z,100015.08
2019-02-08T04:01:02.820Z,100017.77
2019-02-08T04:03:32.498Z,100011.86
2019-02-08T04:06:01.930Z,100017.17
2019-02-08T04:08:31.449Z,100016.30
2019-02-08T04:11:01.041Z,100008.30
2019-02-08T04:13:30.427Z,100013.33
2019-02-08T04:15:59.857Z,100004.84
2019-02-08T04:18:29.356Z,100004.00
2019-02-08T04:20:58.831Z,99996.73
2019-02-08T04:23:28.349Z,100001.23
2019-02-08T04:25:57.723Z,100003.50
2019-02-08T04:28:27.214Z,99993.81
2019-02-08T04:30:56.905Z,99998.16
2019-02-08T04:33:26.337Z,99994.56
2019-02-08T04:35:55.712Z,99999.77
2019-02-08T04:38:25.229Z,99994.17
2019-02-08T04:40:54.706Z,99994.22
2019-02-08T04:43:24.084Z,99988.45
2019-02-08T04:45:53.572Z,99986.78
2019-02-08T04:48:22.959Z,99992.92
2019-02-08T04:50:52.328Z,99990.53
2019-02-08T04:53:21.847Z,99981.71
2019-02-08T04:55:51.322Z,99986.23
2019-02-08T04:58:22.092Z,99991.45
2019-02-08T05:00:51.661Z,99985.02
2019-02-08T05:03:21.123Z,99988.64
2019-02-08T05:05:50.694Z,99981.54
2019-02-08T05:08:20.131Z,99989.29
2019-02-08T05:10:49.502Z,99987.64
2019-02-08T05:13:18.981Z,99993.28
2019-02-08T05:15:48.502Z,99997.41
2019-02-08T05:18:17.886Z,99993.16
2019-02-08T05:20:47.231Z,100000.03
2019-02-08T05:23:16.917Z,100000.95
2019-02-08T05:25:46.397Z,100003.08
2019-02-08T05:28:15.763Z,100003.42
2019-02-08T05:30:45.178Z,100005.75
2019-02-08T05:33:14.651Z,100003.92
2019-02-08T05:35:44.124Z,100010.05
2019-02-08T05:38:13.714Z,100010.75
2019-02-08T05:40:43.104Z,100009.53
2019-02-08T05:43:12.564Z,100003.20
2019-02-08T05:45:42.083Z,100005.69
2019-02-08T05:48:11.475Z,100005.72
2019-02-08T05:50:40.833Z,100015.27
2019-02-08T05:53:10.394Z,100012.06
2019-02-08T05:55:39.854Z,100013.70
2019-02-08T05:58:10.320Z,100023.19
2019-02-08T06:00:51.166Z,100021.41
2019-02-08T06:03:20.783Z,100022.01
2019-02-08T06:05:50.419Z,100020.08
2019-02-08T06:08:20.039Z,100028.27
2019-02-08T06:10:49.494Z,100028.16
2019-02-08T06:13:18.905Z,100030.13
2019-02-08T06:15:48.313Z,100028.00
2019-02-08T06:18:17.777Z,100030.21
2019-02-08T06:20:47.250Z,100031.46
2019-02-08T06:23:16.662Z,100040.03
2019-02-08T06:25:46.035Z,100038.65
2019-02-08T06:28:15.520Z,100037.29
2019-02-08T06:30:45.152Z,100035.47
2019-02-08T06:33:14.538Z,100043.31
2019-02-08T06:35:43.928Z,100040.55
2019-02-08T06:38:13.564Z,100045.91
2019-02-08T06:40:45.552Z,100050.70
2019-02-08T06:43:14.938Z,100046.34
2019-02-08T06:45:44.559Z,100043.40
2019-02-08T06:48:14.494Z,100044.08
2019-02-08T06:50:43.860Z,100042.55
2019-02-08T06:53:13.617Z,100038.62
2019-02-08T06:55:43.175Z,100044.13
2019-02-08T06:58:25.990Z,100044.58
2019-02-08T07:01:23.711Z,100049.67
2019-02-08T07:04:11.927Z,100046.45
2019-02-08T07:06:53.054Z,100041.23
2019-02-08T07:09:44.311Z,100041.39
2019-02-08T07:12:22.175Z,100046.55
2019-02-08T07:15:26.449Z,100041.94
2019-02-08T07:18:09.010Z,100048.34
2019-02-08T07:21:09.638Z,100045.24
2019-02-08T07:24:10.278Z,100043.64
2019-02-08T07:27:07.952Z,100046.83
2019-02-08T07:30:11.805Z,100039.23
2019-02-08T07:32:58.947Z,100039.00
2019-02-08T07:35:45.833Z,100042.27
2019-02-08T07:38:43.687Z,100045.41
2019-02-08T07:41:31.281Z,100045.20
2019-02-08T07:44:26.028Z,100044.48
2019-02-08T07:47:18.019Z,100045.50
2019-02-08T07:50:07.033Z,100046.75
2019-02-08T07:52:57.794Z,100045.69
2019-02-08T07:55:44.911Z,100039.48
2019-02-08T07:58:45.859Z,100040.95
2019-02-08T08:01:38.775Z,100040.53
2019-02-08T08:04:29.215Z,100040.12
2019-02-08T08:07:15.591Z,100039.95
2019-02-08T08:10:06.286Z,100039.38
2019-02-08T08:13:00.370Z,100039.63
2019-02-08T08:16:04.087Z,100045.31
2019-02-08T08:18:48.909Z,100045.64
2019-02-08T08:21:36.955Z,100045.69
2019-02-08T08:24:38.653Z,100047.27
2019-02-08T08:27:32.774Z,100045.47
2019-02-08T08:30:19.033Z,100055.22
2019-02-08T08:33:06.160Z,100054.31
2019-02-08T08:36:05.186Z,100056.02
2019-02-08T08:39:11.538Z,100048.87
2019-02-08T08:42:20.326Z,100052.28
2019-02-08T08:45:26.354Z,100054.53
2019-02-08T08:48:22.611Z,100051.16
2019-02-08T08:51:28.643Z,100054.64
2019-02-08T08:54:54.487Z,100059.88
2019-02-08T08:57:40.884Z,100068.34
2019-02-08T09:00:42.242Z,100067.02
2019-02-08T09:04:07.439Z,100076.20
2019-02-08T09:07:19.141Z,100070.13
2019-02-08T09:10:34.223Z,100066.97
2019-02-08T09:13:56.642Z,100075.98
2019-02-08T09:16:54.048Z,100067.94
2019-02-08T09:20:06.145Z,100074.88
2019-02-08T09:23:18.752Z,100071.61
2019-02-08T09:26:23.730Z,100075.01
2019-02-08T09:29:18.213Z,100072.09
2019-02-08T09:32:35.357Z,100074.86
2019-02-08T09:35:59.856Z,100072.19
2019-02-08T09:39:19.331Z,100079.56
2019-02-08T09:42:50.519Z,100076.13
2019-02-08T09:45:56.409Z,100074.55
2019-02-08T09:49:01.450Z,100073.05
2019-02-08T09:52:08.213Z,100061.29
2019-02-08T09:55:06.560Z,100060.80
2019-02-08T09:58:18.548Z,100067.25
2019-02-08T10:01:13.153Z,100061.73
2019-02-08T10:04:25.994Z,100059.22
2019-02-08T10:07:17.421Z,100063.55
2019-02-08T10:10:22.820Z,100064.77
2019-02-08T10:13:22.988Z,100062.95
2019-02-08T10:16:29.089Z,100055.80
2019-02-08T10:19:35.031Z,100055.77
2019-02-08T10:23:06.388Z,100052.19
2019-02-08T10:26:06.748Z,100053.72
2019-02-08T10:29:11.782Z,100050.95
2019-02-08T10:32:25.480Z,100047.02
2019-02-08T10:35:22.807Z,100049.91
2019-02-08T10:38:35.416Z,100045.24
2019-02-08T10:41:50.915Z,100043.30
2019-02-08T10:45:04.329Z,100040.37
2019-02-08T10:48:09.889Z,100044.52
2019-02-08T10:51:07.744Z,100040.77
2019-02-08T10:54:13.877Z,100039.95
2019-02-08T10:57:31.021Z,100036.23
2019-02-08T11:00:55.479Z,100043.31
2019-02-08T11:04:05.727Z,100034.34
2019-02-08T11:07:16.612Z,100030.37
2019-02-08T11:10:21.500Z,100026.92
2019-02-08T11:13:28.753Z,100025.48
2019-02-08T11:16:38.709Z,100011.48
2019-02-08T11:19:24.936Z,100011.05
2019-02-08T11:21:54.948Z,100003.25
2019-02-08T11:24:27.879Z,100000.77
2019-02-08T11:26:59.578Z,99996.88
2019-02-08T11:29:29.241Z,99993.84
2019-02-08T11:31:58.692Z,99994.98
2019-02-08T11:34:28.225Z,99997.41
2019-02-08T11:36:57.674Z,99999.08
2019-02-08T11:39:27.140Z,99993.53
2019-02-08T11:41:56.864Z,99998.51
2019-02-08T11:44:26.343Z,99992.73
2019-02-08T11:46:55.732Z,99995.72
2019-02-08T11:49:25.235Z,99990.83
2019-02-08T11:51:54.727Z,99992.30
2019-02-08T11:54:24.100Z,99988.20
2019-02-08T11:56:53.789Z,99989.98
2019-02-08T11:59:23.271Z,99991.22
2019-02-08T12:01:53.204Z,99987.92
2019-02-08T12:04:22.681Z,99977.70
2019-02-08T12:06:52.055Z,99975.03
2019-02-08T12:09:21.679Z,99987.89
2019-02-08T12:11:51.643Z,99981.02
2019-02-08T12:14:21.106Z,99979.43
2019-02-08T12:16:50.586Z,99978.05
2019-02-08T12:19:20.391Z,99974.52
2019-02-08T12:21:49.778Z,99969.07
2019-02-08T12:24:19.343Z,99968.13
2019-02-08T12:26:48.973Z,99966.45
2019-02-08T12:29:18.342Z,99971.26
2019-02-08T12:31:47.719Z,99968.33
2019-02-08T12:34:17.238Z,99968.52
2019-02-08T12:36:46.721Z,99963.13
2019-02-08T12:39:16.138Z,99964.72
2019-02-08T12:41:45.816Z,99960.29
2019-02-08T12:44:15.375Z,99961.57
2019-02-08T12:46:44.920Z,99960.83
2019-02-08T12:49:14.436Z,99959.22
2019-02-08T12:51:43.912Z,99952.35
2019-02-08T12:54:13.378Z,99951.35
2019-02-08T12:56:45.692Z,99951.44
2019-02-08T12:59:14.024Z,99953.98
2019-02-08T13:01:43.536Z,99951.44
2019-02-08T13:04:13.106Z,99957.16
2019-02-08T13:06:42.482Z,99958.20
2019-02-08T13:09:12.625Z,99956.67
2019-02-08T13:11:42.311Z,99955.91
2019-02-08T13:14:14.007Z,99956.43
2019-02-08T13:16:43.383Z,99954.38
2019-02-08T13:19:12.900Z,99956.49
2019-02-08T13:21:42.578Z,99960.63
2019-02-08T13:24:12.054Z,99958.87
2019-02-08T13:26:41.630Z,99956.55
2019-02-08T13:29:11.107Z,99957.55
2019-02-08T13:31:40.480Z,99957.01
2019-02-08T13:34:10.108Z,99956.57
2019-02-08T13:36:39.601Z,99960.81
2019-02-08T13:39:10.235Z,99959.98
2019-02-08T13:41:39.641Z,99953.73
2019-02-08T13:44:09.156Z,99959.38
2019-02-08T13:46:38.625Z,99955.63
2019-02-08T13:49:08.052Z,99953.66
2019-02-08T13:51:37.423Z,99955.59
2019-02-08T13:54:10.282Z,99947.96
2019-02-08T13:56:39.782Z,99950.84
2019-02-08T13:59:09.190Z,99945.20
2019-02-08T14:01:38.576Z,99946.83
2019-02-08T14:04:08.087Z,99946.97
2019-02-08T14:06:37.589Z,99941.13
2019-02-08T14:09:09.582Z,99948.42
2019-02-08T14:11:39.095Z,99950.59
2019-02-08T14:14:08.577Z,99948.52
2019-02-08T14:16:39.357Z,99944.72
2019-02-08T14:19:09.010Z,99948.37
2019-02-08T14:21:38.474Z,99946.46
2019-02-08T14:24:07.857Z,99940.34
2019-02-08T14:26:37.331Z,99949.38
2019-02-08T14:29:06.829Z,99947.26
2019-02-08T14:31:36.345Z,99948.69
2019-02-08T14:34:05.969Z,99942.00
2019-02-08T14:36:35.361Z,99943.31
2019-02-08T14:39:08.255Z,99942.34
2019-02-08T14:41:37.779Z,99948.80
2019-02-08T14:44:07.424Z,99952.25
2019-02-08T14:46:36.791Z,99946.39
2019-02-08T14:49:06.701Z,99936.42
2019-02-08T14:51:37.135Z,99944.75
2019-02-08T14:54:06.810Z,99958.34
2019-02-08T14:56:36.283Z,99955.48
2019-02-08T14:59:06.078Z,99955.62
2019-02-08T15:01:35.502Z,99956.64
2019-02-08T15:04:07.459Z,99957.26
2019-02-08T15:06:36.702Z,99957.39
2019-02-08T15:09:10.488Z,99953.28
2019-02-08T15:11:39.909Z,99957.48
2019-02-08T15:14:09.428Z,99958.98
2019-02-08T15:16:38.940Z,99963.02
2019-02-08T15:19:08.328Z,99963.20
2019-02-08T15:21:37.719Z,99963.09
2019-02-08T15:24:07.250Z,99964.91
2019-02-08T15:26:36.757Z,99967.23
2019-02-08T15:29:06.312Z,99968.66
2019-02-08T15:31:36.077Z,99967.81
2019-02-08T15:34:07.267Z,99970.03
2019-02-08T15:36:36.661Z,99966.35
2019-02-08T15:39:11.183Z,99968.52
2019-02-08T15:41:40.753Z,99973.13
2019-02-08T15:44:10.160Z,99974.11
2019-02-08T15:46:39.555Z,99975.80
2019-02-08T15:49:09.015Z,99976.66
2019-02-08T15:51:38.579Z,99974.77
2019-02-08T15:54:08.003Z,99981.82
2019-02-08T15:56:37.924Z,99979.86
2019-02-08T15:59:07.579Z,99978.55
2019-02-08T16:01:37.190Z,99978.15
2019-02-08T16:04:06.656Z,99980.88
2019-02-08T16:06:36.051Z,99982.70
2019-02-08T16:09:11.493Z,99987.18
2019-02-08T16:11:40.964Z,99984.22
2019-02-08T16:14:10.646Z,99985.11
2019-02-08T16:16:40.158Z,99989.50
2019-02-08T16:19:11.379Z,99996.61
2019-02-08T16:21:40.757Z,99993.58
2019-02-08T16:24:10.386Z,99998.42
2019-02-08T16:26:39.840Z,100000.12
2019-02-08T16:29:09.319Z,100004.92
2019-02-08T16:31:38.865Z,100002.89
2019-02-08T16:34:08.445Z,100005.67
2019-02-08T16:36:38.058Z,100012.89
2019-02-08T16:39:10.529Z,100010.31
2019-02-08T16:41:39.973Z,100016.02
2019-02-08T16:44:10.145Z,100012.83
2019-02-08T16:46:40.472Z,100019.97
2019-02-08T16:49:09.933Z,100018.98
2019-02-08T16:51:39.338Z,100023.14
2019-02-08T16:54:09.132Z,100019.43
2019-02-08T16:56:38.607Z,100017.71
2019-02-08T16:59:08.288Z,100017.63
2019-02-08T17:01:37.738Z,100021.55
2019-02-08T17:04:07.323Z,100020.88
2019-02-08T17:06:36.807Z,100021.64
2019-02-08T17:09:11.910Z,100023.31
2019-02-08T17:11:41.571Z,100025.84
2019-02-08T17:14:11.168Z,100030.63
2019-02-08T17:16:40.829Z,100028.41
2019-02-08T17:19:10.221Z,100034.42
2019-02-08T17:21:39.710Z,100033.30
2019-02-08T17:24:09.237Z,100037.46
2019-02-08T17:26:38.699Z,100034.48
2019-02-08T17:29:08.101Z,100029.06
2019-02-08T17:31:37.754Z,100030.45
2019-02-08T17:34:07.146Z,100034.34
2019-02-08T17:36:36.546Z,100032.12
2019-02-08T17:39:07.893Z,100035.61
2019-02-08T17:41:37.385Z,100034.84
2019-02-08T17:44:07.040Z,100033.53
2019-02-08T17:46:36.523Z,100038.83
2019-02-08T17:49:05.994Z,100038.42
2019-02-08T17:51:36.911Z,100049.17
2019-02-08T17:54:06.494Z,100040.30
2019-02-08T17:56:35.910Z,100048.17
2019-02-08T17:59:05.420Z,100041.48
2019-02-08T18:01:34.897Z,100039.72
2019-02-08T18:04:04.274Z,100043.84
2019-02-08T18:06:33.696Z,100049.93
2019-02-08T18:09:03.226Z,100050.34
2019-02-08T18:11:32.607Z,100058.61
2019-02-08T18:14:02.194Z,100066.21
2019-02-08T18:16:31.697Z,100055.19
2019-02-08T18:19:01.118Z,100068.97
2019-02-08T18:21:30.500Z,100065.94
2019-02-08T18:24:00.139Z,100068.78
2019-02-08T18:26:29.571Z,100073.12
2019-02-08T18:28:58.949Z,100070.10
2019-02-08T18:31:28.375Z,100070.05
2019-02-08T18:33:57.839Z,100073.98
2019-02-08T18:36:27.306Z,100070.41
2019-02-08T18:38:57.375Z,100073.48
2019-02-08T18:41:26.913Z,100076.19
2019-02-08T18:43:56.387Z,100068.41
2019-02-08T18:46:25.900Z,100078.85
2019-02-08T18:48:55.287Z,100080.87
2019-02-08T18:51:24.778Z,100087.05
2019-02-08T18:53:54.498Z,100082.23
2019-02-08T18:56:23.959Z,100080.20
2019-02-08T18:58:53.465Z,100084.87
2019-02-08T19:01:23.133Z,100087.45
2019-02-08T19:03:52.493Z,100091.25
2019-02-08T19:06:21.893Z,100088.77
2019-02-08T19:08:51.569Z,100089.60
2019-02-08T19:11:21.047Z,100094.58
2019-02-08T19:13:50.508Z,100098.72
2019-02-08T19:16:19.976Z,100103.22
2019-02-08T19:18:49.450Z,100103.42
2019-02-08T19:21:19.003Z,100102.27
2019-02-08T19:23:48.638Z,100108.61
2019-02-08T19:26:18.375Z,100102.72
2019-02-08T19:28:47.922Z,100108.53
2019-02-08T19:31:17.344Z,100108.25
2019-02-08T19:33:46.834Z,100107.88
2019-02-08T19:36:16.315Z,100112.80
2019-02-08T19:38:45.744Z,100110.02
2019-02-08T19:41:15.114Z,100121.33
2019-02-08T19:43:44.604Z,100128.70
2019-02-08T19:46:14.147Z,100124.13
2019-02-08T19:48:43.502Z,100125.02
2019-02-08T19:51:12.897Z,100120.81
2019-02-08T19:53:42.631Z,100123.69
2019-02-08T19:56:12.080Z,100117.13
2019-02-08T19:58:41.482Z,100117.98
2019-02-08T20:01:10.996Z,100121.66
2019-02-08T20:03:40.478Z,100120.12
2019-02-08T20:06:10.163Z,100116.64
2019-02-08T20:08:39.569Z,100124.14
2019-02-08T20:11:09.101Z,100121.67
2019-02-08T20:13:38.470Z,100132.69
2019-02-08T20:16:07.904Z,100127.36
2019-02-08T20:18:37.386Z,100135.52
2019-02-08T20:21:07.144Z,100126.67
2019-02-08T20:23:36.572Z,100123.93
2019-02-08T20:26:06.116Z,100129.70
2019-02-08T20:28:42.115Z,100131.34
2019-02-08T20:31:08.045Z,100129.09
2019-02-08T20:33:37.411Z,100135.34
2019-02-08T20:36:07.017Z,100133.56
2019-02-08T20:38:36.714Z,100135.69
2019-02-08T20:41:06.291Z,100140.44
2019-02-08T20:43:35.676Z,100141.30
2019-02-08T20:46:05.111Z,100142.71
2019-02-08T20:48:34.589Z,100138.35
2019-02-08T20:51:04.093Z,100144.92
2019-02-08T20:53:33.596Z,100148.17
2019-02-08T20:56:03.173Z,100143.98
2019-02-08T20:58:33.227Z,100139.73
2019-02-08T21:01:03.026Z,100147.16
2019-02-08T21:03:32.602Z,100144.23
2019-02-08T21:06:02.150Z,100146.61
2019-02-08T21:08:31.889Z,100146.97
2019-02-08T21:11:01.267Z,100146.17
2019-02-08T21:13:30.856Z,100146.06
2019-02-08T21:16:00.375Z,100140.77
2019-02-08T21:18:29.741Z,100140.53
2019-02-08T21:20:59.125Z,100138.63
2019-02-08T21:23:28.799Z,100142.63
2019-02-08T21:25:58.250Z,100141.91
2019-02-08T21:28:27.642Z,100140.25
2019-02-08T21:30:58.135Z,100142.55
2019-02-08T21:33:27.663Z,100142.48
2019-02-08T21:35:57.062Z,100142.14
2019-02-08T21:38:26.594Z,100143.14
2019-02-08T21:40:56.074Z,100144.11
2019-02-08T21:43:25.438Z,100144.08
2019-02-08T21:45:55.070Z,100143.45
2019-02-08T21:48:24.655Z,100139.83
2019-02-08T21:50:54.292Z,100146.41
2019-02-08T21:53:23.737Z,100145.10
2019-02-08T21:55:53.226Z,100148.44
2019-02-08T21:58:22.715Z,100142.79
2019-02-08T22:00:52.234Z,100141.41
2019-02-08T22:03:21.627Z,100137.94
2019-02-08T22:05:57.888Z,100146.30
2019-02-08T22:08:27.365Z,100152.13
2019-02-08T22:10:56.821Z,100152.13
2019-02-08T22:13:26.393Z,100146.86
2019-02-08T22:15:55.769Z,100148.20
2019-02-08T22:18:25.382Z,100142.07
2019-02-08T22:20:54.904Z,100142.48
2019-02-08T22:23:24.284Z,100148.17
2019-02-08T22:25:53.667Z,100149.79
2019-02-08T22:28:23.310Z,100150.72
2019-02-08T22:30:52.789Z,100153.81
2019-02-08T22:33:22.583Z,100160.39
2019-02-08T22:35:52.177Z,100160.90
2019-02-08T22:38:21.766Z,100164.47
2019-02-08T22:40:51.233Z,100157.66
2019-02-08T22:43:20.814Z,100165.50
2019-02-08T22:45:50.241Z,100156.66
2019-02-08T22:48:19.700Z,100159.91
2019-02-08T22:50:49.290Z,100154.11
2019-02-08T22:53:18.795Z,100156.18
2019-02-08T22:55:48.307Z,100161.92
2019-02-08T22:58:17.775Z,100150.16
2019-02-08T23:01:15.307Z,100148.21
2019-02-08T23:03:44.827Z,100149.84
2019-02-08T23:06:14.391Z,100140.66
2019-02-08T23:08:43.793Z,100142.25
2019-02-08T23:11:13.307Z,100144.24
2019-02-08T23:13:42.797Z,100142.05
2019-02-08T23:16:12.861Z,100139.02
2019-02-08T23:18:42.374Z,100145.07
2019-02-08T23:21:12.207Z,100144.69
2019-02-08T23:23:41.972Z,100138.98
2019-02-08T23:26:11.476Z,100139.88
2019-02-08T23:28:40.877Z,100138.39
2019-02-08T23:31:10.464Z,100148.41
2019-02-08T23:33:39.897Z,100147.12
2019-02-08T23:36:09.393Z,100139.70
2019-02-08T23:38:38.871Z,100142.59
2019-02-08T23:41:08.385Z,100145.77
2019-02-08T23:43:37.774Z,100145.17
2019-02-08T23:46:07.265Z,100140.75
2019-02-08T23:48:36.810Z,100141.70
2019-02-08T23:51:06.419Z,100141.48
2019-02-08T23:53:35.792Z,100151.28
2019-02-08T23:56:05.621Z,100146.00
2019-02-08T23:58:35.105Z,100152.13
